createdAt,value
2022-07-28T00:00:09.353Z,100380.69
2022-07-28T00:02:17.275Z,100377.94
2022-07-28T00:03:03.907Z,100388.91
2022-07-28T00:03:50.669Z,100383.41
2022-07-28T00:04:37.139Z,100382.59
2022-07-28T00:05:21.231Z,100383.41
2022-07-28T00:06:10.003Z,100383.72
2022-07-28T00:07:11.053Z,100387.25
2022-07-28T00:08:03.881Z,100384.53
2022-07-28T00:08:57.086Z,100387.25
2022-07-28T00:11:06.935Z,100380.69
2022-07-28T00:12:05.301Z,100373.59
2022-07-28T00:13:03.993Z,100381.78
2022-07-28T00:13:51.243Z,100373.59
2022-07-28T00:14:40.134Z,100379.06
2022-07-28T00:15:25.763Z,100373.59
2022-07-28T00:16:13.590Z,100375.50
2022-07-28T00:17:01.072Z,100377.94
2022-07-28T00:17:49.191Z,100379.88
2022-07-28T00:18:33.115Z,100376.31
2022-07-28T00:19:21.056Z,100377.13
2022-07-28T00:20:08.516Z,100373.59
2022-07-28T00:21:00.332Z,100375.22
2022-07-28T00:21:53.557Z,100373.59
2022-07-28T00:22:38.017Z,100372.47
2022-07-28T00:23:38.533Z,100369.75
2022-07-28T00:24:28.903Z,100370.84
2022-07-28T00:25:28.890Z,100371.66
2022-07-28T00:26:16.011Z,100366.19
2022-07-28T00:27:02.383Z,100367.00
2022-07-28T00:27:47.130Z,100370.03
2022-07-28T00:28:36.185Z,100368.13
2022-07-28T00:29:49.972Z,100365.38
2022-07-28T00:30:35.376Z,100369.75
2022-07-28T00:31:23.980Z,100374.41
2022-07-28T00:32:14.027Z,100368.13
2022-07-28T00:33:02.353Z,100372.47
2022-07-28T00:33:49.554Z,100377.94
2022-07-28T00:34:34.665Z,100368.94
2022-07-28T00:35:29.074Z,100370.84
2022-07-28T00:36:14.284Z,100366.19
2022-07-28T00:37:06.774Z,100365.38
2022-07-28T00:38:01.298Z,100365.38
2022-07-28T00:39:15.946Z,100369.75
2022-07-28T00:40:11.044Z,100367.31
2022-07-28T00:41:51.408Z,100365.38
2022-07-28T00:42:22.855Z,100359.09
2022-07-28T00:42:54.288Z,100364.56
2022-07-28T00:43:25.754Z,100363.75
2022-07-28T00:43:57.168Z,100362.63
2022-07-28T00:44:28.571Z,100358.28
2022-07-28T00:44:59.990Z,100359.09
2022-07-28T00:45:31.404Z,100363.75
2022-07-28T00:46:02.973Z,100355.53
2022-07-28T00:46:34.544Z,100355.53
2022-07-28T00:47:06.163Z,100358.28
2022-07-28T00:47:37.696Z,100358.28
2022-07-28T00:49:23.481Z,100358.28
2022-07-28T00:50:17.475Z,100357.47
2022-07-28T00:51:14.755Z,100358.28
2022-07-28T00:52:00.797Z,100352.81
2022-07-28T00:52:45.448Z,100353.63
2022-07-28T00:54:34.219Z,100355.53
2022-07-28T00:55:31.175Z,100356.66
2022-07-28T00:56:13.448Z,100355.84
2022-07-28T00:56:51.382Z,100350.38
2022-07-28T00:57:27.948Z,100353.09
2022-07-28T00:58:04.809Z,100351.19
2022-07-28T00:58:41.201Z,100350.38
2022-07-28T00:59:17.209Z,100350.38
2022-07-28T00:59:53.869Z,100346.53
2022-07-28T01:00:30.484Z,100352.28
2022-07-28T01:01:07.283Z,100351.19
2022-07-28T01:01:44.112Z,100347.63
2022-07-28T01:02:20.530Z,100348.44
2022-07-28T01:02:56.743Z,100352.00
2022-07-28T01:03:33.605Z,100342.97
2022-07-28T01:04:10.841Z,100342.97
2022-07-28T01:04:48.424Z,100345.69
2022-07-28T01:05:43.365Z,100348.44
2022-07-28T01:06:21.638Z,100344.88
2022-07-28T01:07:03.609Z,100350.06
2022-07-28T01:07:40.702Z,100351.19
2022-07-28T01:08:17.475Z,100347.63
2022-07-28T01:08:53.812Z,100347.63
2022-07-28T01:09:29.935Z,100347.63
2022-07-28T01:10:06.590Z,100344.88
2022-07-28T01:10:46.683Z,100350.38
2022-07-28T01:11:24.067Z,100353.09
2022-07-28T01:12:00.519Z,100344.88
2022-07-28T01:12:40.582Z,100339.41
2022-07-28T01:13:19.660Z,100344.06
2022-07-28T01:13:59.395Z,100350.38
2022-07-28T01:14:35.312Z,100350.38
2022-07-28T01:15:11.959Z,100349.56
2022-07-28T01:15:48.883Z,100349.56
2022-07-28T01:16:26.012Z,100348.75
2022-07-28T01:17:06.032Z,100350.38
2022-07-28T01:17:43.899Z,100349.56
2022-07-28T01:18:27.676Z,100352.28
2022-07-28T01:19:06.547Z,100346.81
2022-07-28T01:19:42.292Z,100352.28
2022-07-28T01:20:19.078Z,100352.28
2022-07-28T01:20:54.905Z,100342.44
2022-07-28T01:21:31.758Z,100347.91
2022-07-28T01:22:08.066Z,100348.75
2022-07-28T01:22:44.891Z,100343.25
2022-07-28T01:23:22.156Z,100345.19
2022-07-28T01:24:02.904Z,100347.09
2022-07-28T01:24:38.625Z,100336.97
2022-07-28T01:25:14.616Z,100343.25
2022-07-28T01:25:50.828Z,100342.44
2022-07-28T01:26:27.510Z,100346.81
2022-07-28T01:27:04.573Z,100340.53
2022-07-28T01:27:43.855Z,100340.81
2022-07-28T01:28:20.793Z,100342.44
2022-07-28T01:28:56.824Z,100350.66
2022-07-28T01:29:32.702Z,100347.91
2022-07-28T01:30:08.660Z,100348.75
2022-07-28T01:30:45.827Z,100344.38
2022-07-28T01:31:22.435Z,100345.19
2022-07-28T01:31:58.684Z,100343.25
2022-07-28T01:32:35.414Z,100338.91
2022-07-28T01:33:13.319Z,100342.44
2022-07-28T01:33:53.459Z,100338.91
2022-07-28T01:34:32.210Z,100342.44
2022-07-28T01:35:10.368Z,100336.16
2022-07-28T01:35:46.128Z,100335.34
2022-07-28T01:36:22.258Z,100330.69
2022-07-28T01:36:59.784Z,100333.44
2022-07-28T01:37:37.200Z,100333.44
2022-07-28T01:38:16.777Z,100324.41
2022-07-28T01:38:59.177Z,100329.88
2022-07-28T01:39:39.490Z,100325.22
2022-07-28T01:40:17.830Z,100334.53
2022-07-28T01:40:54.086Z,100336.16
2022-07-28T01:41:30.903Z,100335.34
2022-07-28T01:42:07.228Z,100329.06
2022-07-28T01:42:44.225Z,100332.63
2022-07-28T01:43:20.248Z,100340.81
2022-07-28T01:43:57.183Z,100332.63
2022-07-28T01:44:33.740Z,100333.44
2022-07-28T01:45:10.563Z,100336.47
2022-07-28T01:45:46.081Z,100335.34
2022-07-28T01:46:22.144Z,100333.72
2022-07-28T01:46:58.763Z,100332.91
2022-07-28T01:47:35.593Z,100331.81
2022-07-28T01:48:11.976Z,100336.47
2022-07-28T01:48:50.549Z,100334.53
2022-07-28T01:49:29.026Z,100331.81
2022-07-28T01:50:06.665Z,100328.25
2022-07-28T01:50:44.048Z,100330.16
2022-07-28T01:51:21.079Z,100326.31
2022-07-28T01:52:00.119Z,100335.63
2022-07-28T01:52:41.378Z,100323.88
2022-07-28T01:53:21.632Z,100321.97
2022-07-28T01:54:02.530Z,100328.25
2022-07-28T01:54:44.462Z,100330.16
2022-07-28T01:55:27.217Z,100327.44
2022-07-28T01:56:03.760Z,100327.44
2022-07-28T01:56:40.430Z,100321.97
2022-07-28T01:57:16.972Z,100321.16
2022-07-28T01:57:53.256Z,100328.53
2022-07-28T01:58:29.945Z,100329.34
2022-07-28T01:59:05.958Z,100332.91
2022-07-28T01:59:42.233Z,100323.06
2022-07-28T02:00:18.279Z,100326.63
2022-07-28T02:00:54.702Z,100324.69
2022-07-28T02:01:30.990Z,100323.88
2022-07-28T02:02:07.980Z,100327.44
2022-07-28T02:02:44.216Z,100325.81
2022-07-28T02:03:21.055Z,100330.97
2022-07-28T02:03:56.979Z,100327.44
2022-07-28T02:04:33.811Z,100326.63
2022-07-28T02:05:10.399Z,100323.06
2022-07-28T02:05:46.386Z,100325.81
2022-07-28T02:06:22.791Z,100323.88
2022-07-28T02:06:59.010Z,100326.63
2022-07-28T02:07:35.390Z,100312.13
2022-07-28T02:08:11.498Z,100315.69
2022-07-28T02:08:48.582Z,100322.25
2022-07-28T02:09:27.871Z,100322.25
2022-07-28T02:10:06.250Z,100321.16
2022-07-28T02:10:48.761Z,100314.06
2022-07-28T02:11:32.649Z,100320.34
2022-07-28T02:12:13.039Z,100321.16
2022-07-28T02:12:54.424Z,100320.34
2022-07-28T02:13:36.946Z,100314.06
2022-07-28T02:14:15.465Z,100310.22
2022-07-28T02:14:52.294Z,100314.88
2022-07-28T02:15:31.323Z,100315.69
2022-07-28T02:16:11.178Z,100313.22
2022-07-28T02:16:52.783Z,100317.91
2022-07-28T02:17:33.113Z,100317.59
2022-07-28T02:18:14.416Z,100319.53
2022-07-28T02:18:53.690Z,100314.88
2022-07-28T02:19:31.306Z,100319.53
2022-07-28T02:20:07.414Z,100316.78
2022-07-28T02:20:43.603Z,100311.31
2022-07-28T02:21:19.975Z,100314.34
2022-07-28T02:21:56.566Z,100312.41
2022-07-28T02:22:32.988Z,100315.16
2022-07-28T02:23:09.246Z,100319.53
2022-07-28T02:23:45.674Z,100309.69
2022-07-28T02:24:21.923Z,100317.91
2022-07-28T02:24:58.632Z,100320.63
2022-07-28T02:25:34.237Z,100319.81
2022-07-28T02:26:10.839Z,100317.91
2022-07-28T02:26:47.643Z,100317.91
2022-07-28T02:27:24.259Z,100318.72
2022-07-28T02:28:01.609Z,100315.16
2022-07-28T02:28:42.598Z,100317.91
2022-07-28T02:29:49.174Z,100320.63
2022-07-28T02:30:19.364Z,100324.47
2022-07-28T02:30:55.306Z,100319.81
2022-07-28T02:31:32.001Z,100316.25
2022-07-28T02:32:17.131Z,100306.13
2022-07-28T02:33:03.797Z,100312.41
2022-07-28T02:33:59.942Z,100317.09
2022-07-28T02:34:36.530Z,100316.25
2022-07-28T02:35:13.496Z,100312.72
2022-07-28T02:35:50.442Z,100309.97
2022-07-28T02:36:26.471Z,100313.53
2022-07-28T02:37:03.365Z,100307.25
2022-07-28T02:37:40.749Z,100310.78
2022-07-28T02:38:17.218Z,100309.69
2022-07-28T02:38:54.094Z,100309.16
2022-07-28T02:39:30.892Z,100309.16
2022-07-28T02:40:07.437Z,100304.50
2022-07-28T02:40:44.541Z,100303.69
2022-07-28T02:41:20.612Z,100305.31
2022-07-28T02:41:57.363Z,100299.03
2022-07-28T02:42:33.722Z,100298.22
2022-07-28T02:43:10.085Z,100304.50
2022-07-28T02:43:49.695Z,100299.03
2022-07-28T02:44:29.260Z,100299.03
2022-07-28T02:45:07.509Z,100298.22
2022-07-28T02:45:47.037Z,100301.78
2022-07-28T02:46:23.107Z,100304.50
2022-07-28T02:46:58.887Z,100298.22
2022-07-28T02:47:34.539Z,100299.03
2022-07-28T02:48:12.380Z,100292.75
2022-07-28T02:48:48.742Z,100299.84
2022-07-28T02:49:25.106Z,100299.03
2022-07-28T02:50:01.684Z,100300.97
2022-07-28T02:50:38.591Z,100300.16
2022-07-28T02:51:15.597Z,100310.78
2022-07-28T02:51:51.342Z,100303.69
2022-07-28T02:52:27.096Z,100300.16
2022-07-28T02:53:15.484Z,100297.41
2022-07-28T02:53:52.055Z,100300.97
2022-07-28T02:54:29.056Z,100299.34
2022-07-28T02:55:05.855Z,100300.16
2022-07-28T02:55:43.858Z,100302.06
2022-07-28T02:56:21.308Z,100300.16
2022-07-28T02:56:57.737Z,100293.88
2022-07-28T02:57:33.801Z,100288.38
2022-07-28T02:58:10.839Z,100300.16
2022-07-28T02:58:47.397Z,100291.13
2022-07-28T02:59:25.031Z,100293.88
2022-07-28T03:00:02.025Z,100293.88
2022-07-28T03:00:38.505Z,100291.13
2022-07-28T03:01:15.935Z,100289.50
2022-07-28T03:01:53.033Z,100302.06
2022-07-28T03:02:29.126Z,100294.97
2022-07-28T03:03:05.214Z,100293.88
2022-07-28T03:03:44.132Z,100293.88
2022-07-28T03:04:19.592Z,100296.59
2022-07-28T03:04:57.217Z,100296.59
2022-07-28T03:05:34.849Z,100293.03
2022-07-28T03:06:13.206Z,100295.78
2022-07-28T03:06:51.329Z,100294.97
2022-07-28T03:07:30.557Z,100296.59
2022-07-28T03:08:11.722Z,100298.53
2022-07-28T03:08:52.925Z,100297.72
2022-07-28T03:09:35.836Z,100299.63
2022-07-28T03:10:14.450Z,100300.44
2022-07-28T03:10:50.799Z,100304.00
2022-07-28T03:11:27.103Z,100305.91
2022-07-28T03:12:03.361Z,100305.91
2022-07-28T03:12:40.199Z,100308.66
2022-07-28T03:13:16.605Z,100311.38
2022-07-28T03:13:54.218Z,100304.28
2022-07-28T03:14:32.381Z,100309.75
2022-07-28T03:15:09.611Z,100310.56
2022-07-28T03:15:48.046Z,100297.19
2022-07-28T03:16:26.204Z,100294.44
2022-07-28T03:17:04.445Z,100299.63
2022-07-28T03:17:47.187Z,100308.13
2022-07-28T03:18:27.442Z,100303.47
2022-07-28T03:19:09.790Z,100298.00
2022-07-28T03:19:51.758Z,100299.91
2022-07-28T03:20:35.861Z,100298.00
2022-07-28T03:21:13.801Z,100304.56
2022-07-28T03:21:50.985Z,100299.91
2022-07-28T03:22:27.852Z,100303.75
2022-07-28T03:23:05.249Z,100299.91
2022-07-28T03:23:41.810Z,100296.38
2022-07-28T03:24:19.006Z,100301.84
2022-07-28T03:24:56.557Z,100297.19
2022-07-28T03:25:33.678Z,100295.56
2022-07-28T03:26:09.906Z,100297.19
2022-07-28T03:26:46.811Z,100298.28
2022-07-28T03:27:25.138Z,100296.38
2022-07-28T03:28:08.773Z,100293.63
2022-07-28T03:28:50.263Z,100291.72
2022-07-28T03:29:27.492Z,100293.63
2022-07-28T03:30:04.488Z,100292.81
2022-07-28T03:30:41.033Z,100290.09
2022-07-28T03:32:07.501Z,100298.00
2022-07-28T03:32:44.697Z,100287.34
2022-07-28T03:33:22.044Z,100294.44
2022-07-28T03:33:58.569Z,100292.81
2022-07-28T03:34:35.180Z,100288.16
2022-07-28T03:35:11.429Z,100292.81
2022-07-28T03:35:48.299Z,100295.56
2022-07-28T03:36:25.170Z,100290.09
2022-07-28T03:37:02.142Z,100293.63
2022-07-28T03:37:39.171Z,100301.03
2022-07-28T03:38:18.033Z,100288.47
2022-07-28T03:38:54.191Z,100288.47
2022-07-28T03:39:32.623Z,100289.28
2022-07-28T03:40:08.995Z,100293.94
2022-07-28T03:40:46.091Z,100288.47
2022-07-28T03:41:21.994Z,100291.19
2022-07-28T03:42:05.367Z,100294.75
2022-07-28T03:42:42.210Z,100299.09
2022-07-28T03:43:19.021Z,100297.47
2022-07-28T03:43:55.647Z,100295.56
2022-07-28T03:44:36.309Z,100294.75
2022-07-28T03:45:14.078Z,100304.06
2022-07-28T03:45:53.178Z,100300.22
2022-07-28T03:46:41.675Z,100300.22
2022-07-28T03:48:20.799Z,100306.50
2022-07-28T03:48:59.562Z,100305.69
2022-07-28T03:50:04.278Z,100305.69
2022-07-28T03:50:42.726Z,100308.72
2022-07-28T03:51:22.092Z,100310.34
2022-07-28T03:51:58.278Z,100304.88
2022-07-28T03:52:35.504Z,100309.53
2022-07-28T03:53:12.542Z,100307.59
2022-07-28T03:53:50.270Z,100308.72
2022-07-28T03:54:27.943Z,100305.16
2022-07-28T03:55:04.624Z,100303.25
2022-07-28T03:55:42.234Z,100310.34
2022-07-28T03:56:20.966Z,100305.97
2022-07-28T03:56:57.062Z,100305.97
2022-07-28T03:57:34.010Z,100306.78
2022-07-28T03:58:11.357Z,100305.97
2022-07-28T03:58:48.714Z,100300.50
2022-07-28T03:59:26.482Z,100305.97
2022-07-28T04:00:07.545Z,100309.53
2022-07-28T04:00:45.415Z,100303.25
2022-07-28T04:01:21.866Z,100303.25
2022-07-28T04:01:58.464Z,100309.53
2022-07-28T04:02:36.924Z,100309.53
2022-07-28T04:03:35.194Z,100304.06
2022-07-28T04:04:14.176Z,100305.97
2022-07-28T04:04:51.969Z,100308.72
2022-07-28T04:05:29.095Z,100300.50
2022-07-28T04:06:05.497Z,100303.25
2022-07-28T04:06:41.821Z,100300.50
2022-07-28T04:07:18.546Z,100297.78
2022-07-28T04:07:54.289Z,100304.06
2022-07-28T04:08:31.097Z,100296.97
2022-07-28T04:09:07.553Z,100297.78
2022-07-28T04:09:45.277Z,100298.06
2022-07-28T04:10:22.117Z,100305.97
2022-07-28T04:10:58.356Z,100305.97
2022-07-28T04:11:40.078Z,100305.97
2022-07-28T04:12:17.662Z,100299.69
2022-07-28T04:12:58.584Z,100306.28
2022-07-28T04:13:38.239Z,100305.47
2022-07-28T04:14:17.070Z,100304.34
2022-07-28T04:14:56.849Z,100304.34
2022-07-28T04:15:39.492Z,100306.28
2022-07-28T04:16:22.315Z,100305.47
2022-07-28T04:17:01.933Z,100311.75
2022-07-28T04:18:20.536Z,100309.81
2022-07-28T04:18:57.507Z,100308.19
2022-07-28T04:19:35.378Z,100308.19
2022-07-28T04:20:12.276Z,100304.34
2022-07-28T04:20:49.480Z,100307.09
2022-07-28T04:21:26.108Z,100307.09
2022-07-28T04:22:03.431Z,100302.72
2022-07-28T04:22:49.126Z,100302.72
2022-07-28T04:23:27.160Z,100304.66
2022-07-28T04:24:03.916Z,100300.00
2022-07-28T04:24:40.326Z,100307.09
2022-07-28T04:25:18.034Z,100297.25
2022-07-28T04:25:55.088Z,100305.47
2022-07-28T04:26:32.506Z,100302.72
2022-07-28T04:27:09.313Z,100299.16
2022-07-28T04:27:45.602Z,100299.16
2022-07-28T04:28:22.689Z,100305.47
2022-07-28T04:28:59.170Z,100306.28
2022-07-28T04:29:40.829Z,100301.91
2022-07-28T04:30:18.906Z,100295.34
2022-07-28T04:30:58.961Z,100305.47
2022-07-28T04:31:37.249Z,100299.69
2022-07-28T04:32:14.432Z,100297.25
2022-07-28T04:32:50.583Z,100296.44
2022-07-28T04:33:27.606Z,100301.91
2022-07-28T04:34:04.933Z,100300.00
2022-07-28T04:34:40.709Z,100300.00
2022-07-28T04:35:17.639Z,100300.00
2022-07-28T04:35:58.649Z,100297.25
2022-07-28T04:36:40.484Z,100295.63
2022-07-28T04:37:23.999Z,100299.16
2022-07-28T04:38:03.723Z,100296.44
2022-07-28T04:38:40.750Z,100305.47
2022-07-28T04:39:18.260Z,100298.06
2022-07-28T04:39:54.811Z,100298.34
2022-07-28T04:40:31.620Z,100299.16
2022-07-28T04:41:08.979Z,100293.69
2022-07-28T04:41:45.193Z,100307.38
2022-07-28T04:42:22.210Z,100300.28
2022-07-28T04:42:59.319Z,100302.72
2022-07-28T04:43:36.225Z,100310.13
2022-07-28T04:44:13.499Z,100305.47
2022-07-28T04:44:50.636Z,100302.72
2022-07-28T04:45:26.964Z,100301.91
2022-07-28T04:46:03.630Z,100298.34
2022-07-28T04:46:40.883Z,100305.47
2022-07-28T04:47:17.268Z,100303.81
2022-07-28T04:47:54.123Z,100303.81
2022-07-28T04:48:31.062Z,100303.81
2022-07-28T04:49:08.040Z,100301.09
2022-07-28T04:49:44.905Z,100297.53
2022-07-28T04:50:22.619Z,100303.81
2022-07-28T04:50:59.804Z,100296.44
2022-07-28T04:51:38.201Z,100299.16
2022-07-28T04:52:16.232Z,100298.34
2022-07-28T04:53:08.981Z,100298.34
2022-07-28T04:53:45.431Z,100298.34
2022-07-28T04:55:17.936Z,100302.72
2022-07-28T04:55:55.655Z,100301.09
2022-07-28T04:56:32.316Z,100292.88
2022-07-28T04:57:10.452Z,100292.88
2022-07-28T04:57:48.843Z,100305.47
2022-07-28T04:58:26.484Z,100297.25
2022-07-28T04:59:03.984Z,100304.66
2022-07-28T04:59:40.593Z,100300.00
2022-07-28T05:00:17.811Z,100298.34
2022-07-28T05:00:54.208Z,100297.53
2022-07-28T05:01:31.472Z,100308.19
2022-07-28T05:02:07.559Z,100302.72
2022-07-28T05:02:44.038Z,100302.72
2022-07-28T05:03:21.675Z,100301.91
2022-07-28T05:04:00.764Z,100304.66
2022-07-28T05:04:41.149Z,100296.44
2022-07-28T05:05:22.137Z,100309.31
2022-07-28T05:06:02.280Z,100301.91
2022-07-28T05:06:40.524Z,100297.53
2022-07-28T05:07:17.272Z,100312.03
2022-07-28T05:07:53.802Z,100303.81
2022-07-28T05:08:30.841Z,100305.47
2022-07-28T05:09:07.425Z,100304.66
2022-07-28T05:09:44.498Z,100300.00
2022-07-28T05:10:21.960Z,100306.56
2022-07-28T05:10:58.329Z,100298.34
2022-07-28T05:11:35.301Z,100298.34
2022-07-28T05:12:12.360Z,100305.47
2022-07-28T05:12:49.440Z,100301.91
2022-07-28T05:13:30.439Z,100300.81
2022-07-28T05:14:09.736Z,100296.44
2022-07-28T05:14:48.265Z,100297.25
2022-07-28T05:15:25.946Z,100299.16
2022-07-28T05:16:02.663Z,100300.81
2022-07-28T05:16:39.910Z,100302.72
2022-07-28T05:17:17.001Z,100306.28
2022-07-28T05:17:53.323Z,100296.44
2022-07-28T05:18:29.152Z,100297.25
2022-07-28T05:19:06.026Z,100300.00
2022-07-28T05:19:43.310Z,100298.06
2022-07-28T05:20:19.345Z,100291.50
2022-07-28T05:20:56.516Z,100297.25
2022-07-28T05:21:33.436Z,100296.16
2022-07-28T05:22:09.753Z,100294.50
2022-07-28T05:22:47.052Z,100293.41
2022-07-28T05:23:29.166Z,100296.97
2022-07-28T05:24:09.156Z,100298.88
2022-07-28T05:24:53.007Z,100302.72
2022-07-28T05:25:30.192Z,100302.72
2022-07-28T05:26:06.705Z,100305.16
2022-07-28T05:26:43.884Z,100306.28
2022-07-28T05:27:19.651Z,100307.09
2022-07-28T05:27:55.694Z,100298.88
2022-07-28T05:28:32.776Z,100303.53
2022-07-28T05:29:10.047Z,100300.81
2022-07-28T05:29:48.061Z,100298.88
2022-07-28T05:30:24.504Z,100293.41
2022-07-28T05:31:01.984Z,100296.16
2022-07-28T05:31:39.564Z,100292.59
2022-07-28T05:32:17.904Z,100298.06
2022-07-28T05:33:03.135Z,100293.41
2022-07-28T05:34:39.442Z,100296.16
2022-07-28T05:35:17.115Z,100295.34
2022-07-28T05:35:55.980Z,100295.34
2022-07-28T05:36:36.266Z,100294.50
2022-07-28T05:37:16.586Z,100300.81
2022-07-28T05:37:52.824Z,100296.16
2022-07-28T05:38:29.538Z,100300.00
2022-07-28T05:39:06.719Z,100305.47
2022-07-28T05:39:43.739Z,100291.78
2022-07-28T05:40:21.023Z,100303.53
2022-07-28T05:40:57.758Z,100300.81
2022-07-28T05:41:34.574Z,100292.88
2022-07-28T05:42:10.766Z,100297.25
2022-07-28T05:42:46.710Z,100293.69
2022-07-28T05:43:23.966Z,100295.63
2022-07-28T05:43:59.715Z,100299.16
2022-07-28T05:44:38.458Z,100293.69
2022-07-28T05:45:15.695Z,100294.50
2022-07-28T05:45:53.114Z,100295.34
2022-07-28T05:46:29.858Z,100289.03
2022-07-28T05:47:06.214Z,100292.59
2022-07-28T05:47:42.668Z,100286.31
2022-07-28T05:48:19.166Z,100287.94
2022-07-28T05:48:57.306Z,100290.69
2022-07-28T05:49:34.808Z,100298.88
2022-07-28T05:50:12.787Z,100292.59
2022-07-28T05:51:03.841Z,100296.44
2022-07-28T05:51:41.926Z,100292.59
2022-07-28T05:52:18.139Z,100291.50
2022-07-28T05:52:54.043Z,100290.69
2022-07-28T05:53:30.249Z,100292.59
2022-07-28T05:54:06.410Z,100290.69
2022-07-28T05:54:43.526Z,100296.97
2022-07-28T05:55:21.018Z,100289.56
2022-07-28T05:56:00.050Z,100295.03
2022-07-28T05:56:41.230Z,100291.50
2022-07-28T05:57:20.049Z,100295.84
2022-07-28T05:58:01.321Z,100292.31
2022-07-28T05:58:37.412Z,100293.41
2022-07-28T05:59:14.041Z,100292.59
2022-07-28T05:59:51.487Z,100295.03
2022-07-28T06:00:28.425Z,100287.94
2022-07-28T06:01:04.954Z,100297.78
2022-07-28T06:01:42.126Z,100288.75
2022-07-28T06:02:19.320Z,100296.16
2022-07-28T06:02:58.336Z,100291.50
2022-07-28T06:03:39.824Z,100286.84
2022-07-28T06:04:27.309Z,100289.56
2022-07-28T06:05:03.764Z,100295.03
2022-07-28T06:05:59.180Z,100291.19
2022-07-28T06:06:39.567Z,100292.31
2022-07-28T06:07:16.387Z,100293.94
2022-07-28T06:07:52.371Z,100295.03
2022-07-28T06:08:28.596Z,100296.66
2022-07-28T06:09:04.648Z,100296.66
2022-07-28T06:09:45.144Z,100294.22
2022-07-28T06:10:21.021Z,100299.41
2022-07-28T06:10:57.464Z,100298.59
2022-07-28T06:11:36.807Z,100306.78
2022-07-28T06:12:17.575Z,100294.75
2022-07-28T06:12:57.092Z,100293.94
2022-07-28T06:14:36.463Z,100297.78
2022-07-28T06:15:12.713Z,100302.13
2022-07-28T06:15:50.025Z,100298.59
2022-07-28T06:16:26.655Z,100304.06
2022-07-28T06:17:04.155Z,100301.31
2022-07-28T06:17:40.896Z,100299.41
2022-07-28T06:18:17.152Z,100302.13
2022-07-28T06:18:52.901Z,100302.13
2022-07-28T06:19:29.799Z,100291.19
2022-07-28T06:20:06.993Z,100301.03
2022-07-28T06:20:43.009Z,100303.75
2022-07-28T06:21:20.015Z,100303.75
2022-07-28T06:21:57.144Z,100299.41
2022-07-28T06:22:35.752Z,100299.41
2022-07-28T06:23:16.334Z,100302.94
2022-07-28T06:23:53.566Z,100297.47
2022-07-28T06:24:31.000Z,100303.75
2022-07-28T06:25:08.394Z,100297.47
2022-07-28T06:25:45.712Z,100301.03
2022-07-28T06:26:23.936Z,100298.28
2022-07-28T06:27:04.775Z,100295.56
2022-07-28T06:27:46.472Z,100299.09
2022-07-28T06:28:26.925Z,100301.03
2022-07-28T06:29:08.582Z,100295.56
2022-07-28T06:29:47.694Z,100300.22
2022-07-28T06:30:24.824Z,100301.03
2022-07-28T06:31:01.665Z,100297.47
2022-07-28T06:31:39.412Z,100301.03
2022-07-28T06:32:18.055Z,100299.09
2022-07-28T06:32:58.508Z,100290.09
2022-07-28T06:33:42.704Z,100295.56
2022-07-28T06:34:25.872Z,100297.19
2022-07-28T06:35:11.936Z,100299.91
2022-07-28T06:35:51.664Z,100290.09
2022-07-28T06:36:33.897Z,100291.72
2022-07-28T06:37:18.373Z,100292.81
2022-07-28T06:37:59.559Z,100290.91
2022-07-28T06:38:47.579Z,100281.88
2022-07-28T06:39:23.360Z,100297.19
2022-07-28T06:40:00.246Z,100297.19
2022-07-28T06:40:37.600Z,100293.63
2022-07-28T06:41:17.182Z,100288.16
2022-07-28T06:41:52.198Z,100291.72
2022-07-28T06:42:23.620Z,100290.09
2022-07-28T06:42:55.047Z,100288.97
2022-07-28T06:43:26.478Z,100288.97
2022-07-28T06:43:57.907Z,100296.38
2022-07-28T06:44:48.278Z,100293.63
2022-07-28T06:45:21.719Z,100288.97
2022-07-28T06:45:53.309Z,100293.63
2022-07-28T06:46:24.723Z,100292.81
2022-07-28T06:46:56.202Z,100294.44
2022-07-28T06:47:27.640Z,100294.44
2022-07-28T06:47:59.037Z,100287.06
2022-07-28T06:48:30.365Z,100294.44
2022-07-28T06:49:01.749Z,100287.34
2022-07-28T06:49:33.316Z,100295.56
2022-07-28T06:50:04.710Z,100290.91
2022-07-28T06:50:36.105Z,100293.63
2022-07-28T06:51:07.509Z,100298.28
2022-07-28T06:51:38.825Z,100294.75
2022-07-28T06:52:10.232Z,100290.91
2022-07-28T06:52:41.658Z,100299.09
2022-07-28T06:53:13.055Z,100291.72
2022-07-28T06:53:44.407Z,100296.38
2022-07-28T06:54:17.859Z,100295.25
2022-07-28T06:54:49.931Z,100293.63
2022-07-28T06:55:21.271Z,100296.38
2022-07-28T06:55:53.675Z,100293.63
2022-07-28T06:56:25.015Z,100292.81
2022-07-28T06:56:56.778Z,100296.38
2022-07-28T06:57:33.684Z,100296.38
2022-07-28T06:58:05.349Z,100295.56
2022-07-28T06:58:36.780Z,100294.44
2022-07-28T06:59:08.173Z,100297.19
2022-07-28T06:59:39.539Z,100292.81
2022-07-28T07:00:10.968Z,100294.44
2022-07-28T07:00:42.390Z,100287.34
2022-07-28T07:01:13.854Z,100292.81
2022-07-28T07:01:45.231Z,100297.19
2022-07-28T07:02:16.587Z,100294.44
2022-07-28T07:02:48.903Z,100294.44
2022-07-28T07:03:20.299Z,100293.63
2022-07-28T07:03:51.635Z,100288.97
2022-07-28T07:04:23.123Z,100288.16
2022-07-28T07:04:54.516Z,100291.72
2022-07-28T07:05:25.929Z,100287.34
2022-07-28T07:05:57.328Z,100286.25
2022-07-28T07:06:28.708Z,100289.78
2022-07-28T07:07:00.092Z,100284.63
2022-07-28T07:07:31.461Z,100290.91
2022-07-28T07:08:02.802Z,100287.34
2022-07-28T07:08:34.277Z,100286.25
2022-07-28T07:09:05.664Z,100291.72
2022-07-28T07:09:37.051Z,100293.63
2022-07-28T07:10:08.561Z,100293.63
2022-07-28T07:10:39.921Z,100280.78
2022-07-28T07:11:11.246Z,100288.97
2022-07-28T07:11:42.554Z,100286.25
2022-07-28T07:12:13.935Z,100285.44
2022-07-28T07:12:45.253Z,100288.16
2022-07-28T07:13:16.656Z,100293.34
2022-07-28T07:13:48.005Z,100288.16
2022-07-28T07:14:19.579Z,100283.50
2022-07-28T07:14:51.154Z,100288.97
2022-07-28T07:15:22.549Z,100287.88
2022-07-28T07:15:53.920Z,100287.06
2022-07-28T07:16:25.413Z,100283.50
2022-07-28T07:16:56.885Z,100287.88
2022-07-28T07:17:28.238Z,100286.25
2022-07-28T07:17:59.550Z,100288.97
2022-07-28T07:18:30.882Z,100286.25
2022-07-28T07:19:05.812Z,100280.78
2022-07-28T07:19:38.409Z,100279.16
2022-07-28T07:20:09.734Z,100285.44
2022-07-28T07:20:41.094Z,100295.25
2022-07-28T07:21:12.745Z,100283.50
2022-07-28T07:21:44.103Z,100283.50
2022-07-28T07:22:15.463Z,100286.25
2022-07-28T07:22:46.891Z,100287.06
2022-07-28T07:23:18.375Z,100293.34
2022-07-28T07:23:49.876Z,100286.25
2022-07-28T07:24:21.357Z,100279.97
2022-07-28T07:24:57.157Z,100283.50
2022-07-28T07:25:29.323Z,100280.78
2022-07-28T07:26:00.741Z,100286.25
2022-07-28T07:26:32.177Z,100278.84
2022-07-28T07:27:03.520Z,100283.50